sensor_id;sensor_type;location;lat;lon;timestamp;P1;durP1;ratioP1;P2;durP2;ratioP2
60076;SDS011;45950;45.208;20.374;2023-02-22T00:02:00;16.25;;;10.07;;
60076;SDS011;45950;45.208;20.374;2023-02-22T00:04:38;17.98;;;9.25;;
60076;SDS011;45950;45.208;20.374;2023-02-22T00:07:04;20.27;;;12.90;;
60076;SDS011;45950;45.208;20.374;2023-02-22T00:09:31;26.13;;;17.38;;
60076;SDS011;45950;45.208;20.374;2023-02-22T00:11:58;31.90;;;18.17;;
60076;SDS011;45950;45.208;20.374;2023-02-22T00:14:24;34.30;;;19.35;;
60076;SDS011;45950;45.208;20.374;2023-02-22T00:16:51;31.67;;;19.30;;
60076;SDS011;45950;45.208;20.374;2023-02-22T00:19:21;35.28;;;22.35;;
60076;SDS011;45950;45.208;20.374;2023-02-22T00:21:50;37.50;;;21.02;;
60076;SDS011;45950;45.208;20.374;2023-02-22T00:24:18;32.53;;;18.02;;
60076;SDS011;45950;45.208;20.374;2023-02-22T00:26:48;27.55;;;18.08;;
60076;SDS011;45950;45.208;20.374;2023-02-22T00:29:15;29.40;;;17.52;;
60076;SDS011;45950;45.208;20.374;2023-02-22T00:31:42;29.23;;;17.65;;
60076;SDS011;45950;45.208;20.374;2023-02-22T00:34:08;25.85;;;15.93;;
60076;SDS011;45950;45.208;20.374;2023-02-22T00:36:36;32.70;;;19.15;;
60076;SDS011;45950;45.208;20.374;2023-02-22T00:39:03;34.75;;;21.35;;
60076;SDS011;45950;45.208;20.374;2023-02-22T00:41:29;26.80;;;17.02;;
60076;SDS011;45950;45.208;20.374;2023-02-22T00:43:56;29.83;;;17.05;;
60076;SDS011;45950;45.208;20.374;2023-02-22T00:46:22;31.60;;;21.13;;
60076;SDS011;45950;45.208;20.374;2023-02-22T00:48:49;34.95;;;19.75;;
60076;SDS011;45950;45.208;20.374;2023-02-22T00:51:15;29.42;;;18.90;;
60076;SDS011;45950;45.208;20.374;2023-02-22T00:53:43;30.25;;;17.52;;
60076;SDS011;45950;45.208;20.374;2023-02-22T00:56:10;29.67;;;17.88;;
60076;SDS011;45950;45.208;20.374;2023-02-22T00:58:36;28.83;;;16.88;;
60076;SDS011;45950;45.208;20.374;2023-02-22T01:01:03;28.23;;;17.60;;
60076;SDS011;45950;45.208;20.374;2023-02-22T01:03:30;29.38;;;17.17;;
60076;SDS011;45950;45.208;20.374;2023-02-22T01:05:56;26.58;;;15.90;;
60076;SDS011;45950;45.208;20.374;2023-02-22T01:08:23;27.73;;;16.40;;
60076;SDS011;45950;45.208;20.374;2023-02-22T01:10:51;26.88;;;16.30;;
60076;SDS011;45950;45.208;20.374;2023-02-22T01:13:18;26.88;;;17.25;;
60076;SDS011;45950;45.208;20.374;2023-02-22T01:15:44;26.95;;;16.88;;
60076;SDS011;45950;45.208;20.374;2023-02-22T01:18:11;26.35;;;16.23;;
60076;SDS011;45950;45.208;20.374;2023-02-22T01:20:41;29.55;;;16.42;;
60076;SDS011;45950;45.208;20.374;2023-02-22T01:23:12;22.70;;;13.50;;
60076;SDS011;45950;45.208;20.374;2023-02-22T01:28:45;18.58;;;11.38;;
60076;SDS011;45950;45.208;20.374;2023-02-22T01:31:12;17.65;;;10.82;;
60076;SDS011;45950;45.208;20.374;2023-02-22T01:33:39;19.33;;;12.00;;
60076;SDS011;45950;45.208;20.374;2023-02-22T01:36:05;24.30;;;14.10;;
60076;SDS011;45950;45.208;20.374;2023-02-22T01:38:35;29.77;;;17.95;;
60076;SDS011;45950;45.208;20.374;2023-02-22T01:41:01;33.13;;;20.50;;
60076;SDS011;45950;45.208;20.374;2023-02-22T02:07:51;26.02;;;16.67;;
60076;SDS011;45950;45.208;20.374;2023-02-22T05:40:21;24.65;;;16.40;;
60076;SDS011;45950;45.208;20.374;2023-02-22T05:51:13;22.98;;;15.68;;
60076;SDS011;45950;45.208;20.374;2023-02-22T05:59:06;16.27;;;10.50;;
60076;SDS011;45950;45.208;20.374;2023-02-22T06:01:32;21.02;;;13.35;;
60076;SDS011;45950;45.208;20.374;2023-02-22T06:03:59;15.90;;;10.07;;
60076;SDS011;45950;45.208;20.374;2023-02-22T06:06:26;17.92;;;10.55;;
60076;SDS011;45950;45.208;20.374;2023-02-22T06:08:52;14.80;;;9.80;;
60076;SDS011;45950;45.208;20.374;2023-02-22T06:11:19;20.80;;;13.18;;
60076;SDS011;45950;45.208;20.374;2023-02-22T06:13:48;16.67;;;11.18;;
60076;SDS011;45950;45.208;20.374;2023-02-22T06:16:18;17.98;;;9.77;;
60076;SDS011;45950;45.208;20.374;2023-02-22T06:18:45;22.92;;;13.57;;
60076;SDS011;45950;45.208;20.374;2023-02-22T06:21:12;40.83;;;23.67;;
60076;SDS011;45950;45.208;20.374;2023-02-22T06:23:38;40.90;;;23.77;;
60076;SDS011;45950;45.208;20.374;2023-02-22T06:26:05;34.70;;;20.42;;
60076;SDS011;45950;45.208;20.374;2023-02-22T06:28:31;33.15;;;22.10;;
60076;SDS011;45950;45.208;20.374;2023-02-22T06:30:58;30.10;;;20.60;;
60076;SDS011;45950;45.208;20.374;2023-02-22T06:33:26;29.90;;;18.55;;
60076;SDS011;45950;45.208;20.374;2023-02-22T06:35:53;25.63;;;17.55;;
60076;SDS011;45950;45.208;20.374;2023-02-22T06:38:20;24.02;;;15.30;;
60076;SDS011;45950;45.208;20.374;2023-02-22T06:40:46;28.27;;;15.32;;
60076;SDS011;45950;45.208;20.374;2023-02-22T06:43:13;24.02;;;14.07;;
60076;SDS011;45950;45.208;20.374;2023-02-22T06:45:39;24.38;;;14.35;;
60076;SDS011;45950;45.208;20.374;2023-02-22T06:48:06;23.70;;;14.00;;
60076;SDS011;45950;45.208;20.374;2023-02-22T06:50:34;22.02;;;13.95;;
60076;SDS011;45950;45.208;20.374;2023-02-22T06:53:01;21.33;;;13.20;;
60076;SDS011;45950;45.208;20.374;2023-02-22T06:58:30;46.85;;;28.67;;
60076;SDS011;45950;45.208;20.374;2023-02-22T07:00:56;21.83;;;15.05;;
60076;SDS011;45950;45.208;20.374;2023-02-22T07:03:24;23.05;;;13.75;;
60076;SDS011;45950;45.208;20.374;2023-02-22T07:08:54;18.60;;;12.10;;
60076;SDS011;45950;45.208;20.374;2023-02-22T07:11:21;21.25;;;12.88;;
60076;SDS011;45950;45.208;20.374;2023-02-22T07:13:48;21.35;;;13.32;;
60076;SDS011;45950;45.208;20.374;2023-02-22T07:16:14;29.98;;;18.20;;
60076;SDS011;45950;45.208;20.374;2023-02-22T07:18:41;30.20;;;17.35;;
60076;SDS011;45950;45.208;20.374;2023-02-22T07:21:07;32.78;;;19.45;;
60076;SDS011;45950;45.208;20.374;2023-02-22T07:23:34;152.07;;;70.07;;
60076;SDS011;45950;45.208;20.374;2023-02-22T07:26:03;53.17;;;28.05;;
60076;SDS011;45950;45.208;20.374;2023-02-22T07:28:30;42.35;;;24.08;;
60076;SDS011;45950;45.208;20.374;2023-02-22T07:30:57;79.55;;;42.25;;
60076;SDS011;45950;45.208;20.374;2023-02-22T07:33:25;85.93;;;42.33;;
60076;SDS011;45950;45.208;20.374;2023-02-22T07:35:52;67.10;;;36.38;;
60076;SDS011;45950;45.208;20.374;2023-02-22T07:38:18;24.70;;;16.63;;
60076;SDS011;45950;45.208;20.374;2023-02-22T07:40:45;22.75;;;14.57;;
60076;SDS011;45950;45.208;20.374;2023-02-22T07:43:15;19.55;;;14.57;;
60076;SDS011;45950;45.208;20.374;2023-02-22T07:45:42;19.08;;;14.13;;
60076;SDS011;45950;45.208;20.374;2023-02-22T07:48:09;20.42;;;12.77;;
60076;SDS011;45950;45.208;20.374;2023-02-22T07:56:43;20.85;;;12.18;;
60076;SDS011;45950;45.208;20.374;2023-02-22T07:59:11;16.17;;;10.80;;
60076;SDS011;45950;45.208;20.374;2023-02-22T08:01:38;16.42;;;10.30;;
60076;SDS011;45950;45.208;20.374;2023-02-22T08:04:04;15.85;;;10.40;;
60076;SDS011;45950;45.208;20.374;2023-02-22T08:06:31;15.57;;;10.18;;
60076;SDS011;45950;45.208;20.374;2023-02-22T08:08:57;13.25;;;9.18;;
60076;SDS011;45950;45.208;20.374;2023-02-22T08:11:24;13.10;;;8.95;;
60076;SDS011;45950;45.208;20.374;2023-02-22T08:13:51;11.35;;;7.43;;
60076;SDS011;45950;45.208;20.374;2023-02-22T08:16:19;36.67;;;20.80;;
60076;SDS011;45950;45.208;20.374;2023-02-22T08:18:45;47.60;;;26.05;;
60076;SDS011;45950;45.208;20.374;2023-02-22T08:21:12;18.00;;;11.50;;
60076;SDS011;45950;45.208;20.374;2023-02-22T08:23:38;11.48;;;8.05;;
60076;SDS011;45950;45.208;20.374;2023-02-22T08:29:00;15.07;;;9.73;;
60076;SDS011;45950;45.208;20.374;2023-02-22T08:31:28;15.35;;;10.45;;
60076;SDS011;45950;45.208;20.374;2023-02-22T08:33:54;16.58;;;10.93;;
60076;SDS011;45950;45.208;20.374;2023-02-22T08:36:21;15.15;;;9.32;;
60076;SDS011;45950;45.208;20.374;2023-02-22T08:38:47;18.90;;;14.02;;
60076;SDS011;45950;45.208;20.374;2023-02-22T08:41:14;16.65;;;10.80;;
60076;SDS011;45950;45.208;20.374;2023-02-22T08:43:40;19.02;;;11.55;;
60076;SDS011;45950;45.208;20.374;2023-02-22T08:46:07;14.13;;;10.00;;
60076;SDS011;45950;45.208;20.374;2023-02-22T08:48:34;15.18;;;10.20;;
60076;SDS011;45950;45.208;20.374;2023-02-22T08:51:01;15.27;;;9.90;;
60076;SDS011;45950;45.208;20.374;2023-02-22T08:53:29;14.20;;;10.30;;
60076;SDS011;45950;45.208;20.374;2023-02-22T08:55:56;9.77;;;7.10;;
60076;SDS011;45950;45.208;20.374;2023-02-22T08:58:23;12.30;;;8.27;;
60076;SDS011;45950;45.208;20.374;2023-02-22T09:01:08;12.23;;;8.10;;
60076;SDS011;45950;45.208;20.374;2023-02-22T09:03:36;18.75;;;10.82;;
60076;SDS011;45950;45.208;20.374;2023-02-22T09:06:02;26.23;;;14.82;;
60076;SDS011;45950;45.208;20.374;2023-02-22T09:08:29;28.23;;;13.93;;
60076;SDS011;45950;45.208;20.374;2023-02-22T09:10:55;22.63;;;12.25;;
60076;SDS011;45950;45.208;20.374;2023-02-22T09:13:22;16.95;;;9.82;;
60076;SDS011;45950;45.208;20.374;2023-02-22T09:15:48;25.65;;;16.15;;
60076;SDS011;45950;45.208;20.374;2023-02-22T09:18:15;9.25;;;6.75;;
60076;SDS011;45950;45.208;20.374;2023-02-22T09:20:43;9.52;;;6.97;;
60076;SDS011;45950;45.208;20.374;2023-02-22T09:23:10;10.90;;;8.48;;
60076;SDS011;45950;45.208;20.374;2023-02-22T09:25:38;8.07;;;6.43;;
60076;SDS011;45950;45.208;20.374;2023-02-22T09:28:05;11.98;;;8.77;;
60076;SDS011;45950;45.208;20.374;2023-02-22T09:30:32;12.65;;;7.82;;
60076;SDS011;45950;45.208;20.374;2023-02-22T09:32:59;11.30;;;9.15;;
60076;SDS011;45950;45.208;20.374;2023-02-22T09:35:26;10.82;;;7.18;;
60076;SDS011;45950;45.208;20.374;2023-02-22T09:37:55;10.13;;;7.28;;
60076;SDS011;45950;45.208;20.374;2023-02-22T09:43:29;11.38;;;8.23;;
60076;SDS011;45950;45.208;20.374;2023-02-22T09:48:45;10.57;;;7.53;;
60076;SDS011;45950;45.208;20.374;2023-02-22T09:51:16;15.73;;;9.57;;
60076;SDS011;45950;45.208;20.374;2023-02-22T09:53:44;13.05;;;8.35;;
60076;SDS011;45950;45.208;20.374;2023-02-22T09:56:14;10.57;;;6.32;;
60076;SDS011;45950;45.208;20.374;2023-02-22T09:58:43;27.85;;;16.17;;
60076;SDS011;45950;45.208;20.374;2023-02-22T10:01:13;39.83;;;24.60;;
60076;SDS011;45950;45.208;20.374;2023-02-22T10:03:46;11.00;;;7.50;;
60076;SDS011;45950;45.208;20.374;2023-02-22T10:06:14;11.52;;;8.18;;
60076;SDS011;45950;45.208;20.374;2023-02-22T10:08:43;27.25;;;15.40;;
60076;SDS011;45950;45.208;20.374;2023-02-22T10:11:12;11.75;;;6.85;;
60076;SDS011;45950;45.208;20.374;2023-02-22T10:13:43;8.85;;;6.97;;
60076;SDS011;45950;45.208;20.374;2023-02-22T10:16:15;10.85;;;7.15;;
60076;SDS011;45950;45.208;20.374;2023-02-22T10:18:52;11.93;;;7.75;;
60076;SDS011;45950;45.208;20.374;2023-02-22T10:24:10;11.55;;;7.00;;
60076;SDS011;45950;45.208;20.374;2023-02-22T10:26:41;10.45;;;7.18;;
60076;SDS011;45950;45.208;20.374;2023-02-22T10:29:09;20.23;;;11.65;;
60076;SDS011;45950;45.208;20.374;2023-02-22T10:31:39;9.70;;;6.78;;
60076;SDS011;45950;45.208;20.374;2023-02-22T10:34:10;13.40;;;10.80;;
60076;SDS011;45950;45.208;20.374;2023-02-22T10:36:39;13.05;;;9.88;;
60076;SDS011;45950;45.208;20.374;2023-02-22T10:39:12;9.80;;;7.25;;
60076;SDS011;45950;45.208;20.374;2023-02-22T10:41:41;8.35;;;5.28;;
60076;SDS011;45950;45.208;20.374;2023-02-22T10:44:09;8.65;;;5.65;;
60076;SDS011;45950;45.208;20.374;2023-02-22T10:46:36;10.43;;;7.40;;
60076;SDS011;45950;45.208;20.374;2023-02-22T10:49:06;7.32;;;6.15;;
60076;SDS011;45950;45.208;20.374;2023-02-22T10:51:33;10.32;;;7.30;;
60076;SDS011;45950;45.208;20.374;2023-02-22T10:54:05;7.60;;;6.10;;
60076;SDS011;45950;45.208;20.374;2023-02-22T10:56:46;9.02;;;7.03;;
60076;SDS011;45950;45.208;20.374;2023-02-22T10:59:24;9.27;;;5.78;;
60076;SDS011;45950;45.208;20.374;2023-02-22T11:01:51;10.13;;;7.63;;
60076;SDS011;45950;45.208;20.374;2023-02-22T11:04:19;9.40;;;6.60;;
60076;SDS011;45950;45.208;20.374;2023-02-22T11:06:47;12.75;;;7.68;;
60076;SDS011;45950;45.208;20.374;2023-02-22T11:09:14;9.20;;;6.15;;
60076;SDS011;45950;45.208;20.374;2023-02-22T11:11:42;7.70;;;5.88;;
60076;SDS011;45950;45.208;20.374;2023-02-22T11:14:11;10.82;;;7.78;;
60076;SDS011;45950;45.208;20.374;2023-02-22T11:16:39;8.02;;;5.28;;
60076;SDS011;45950;45.208;20.374;2023-02-22T11:19:11;8.90;;;6.22;;
60076;SDS011;45950;45.208;20.374;2023-02-22T11:21:41;8.73;;;7.18;;
60076;SDS011;45950;45.208;20.374;2023-02-22T11:24:13;15.70;;;10.07;;
60076;SDS011;45950;45.208;20.374;2023-02-22T11:26:41;13.77;;;8.73;;
60076;SDS011;45950;45.208;20.374;2023-02-22T11:29:10;16.40;;;9.35;;
60076;SDS011;45950;45.208;20.374;2023-02-22T11:34:33;7.40;;;5.63;;
60076;SDS011;45950;45.208;20.374;2023-02-22T11:37:15;8.95;;;6.03;;
60076;SDS011;45950;45.208;20.374;2023-02-22T11:39:42;7.45;;;5.45;;
60076;SDS011;45950;45.208;20.374;2023-02-22T11:42:21;8.85;;;5.55;;
60076;SDS011;45950;45.208;20.374;2023-02-22T11:44:49;8.43;;;5.32;;
60076;SDS011;45950;45.208;20.374;2023-02-22T11:47:44;9.30;;;6.63;;
60076;SDS011;45950;45.208;20.374;2023-02-22T11:50:16;10.93;;;5.97;;
60076;SDS011;45950;45.208;20.374;2023-02-22T11:52:45;10.43;;;6.97;;
60076;SDS011;45950;45.208;20.374;2023-02-22T11:55:13;10.85;;;8.18;;
60076;SDS011;45950;45.208;20.374;2023-02-22T11:57:49;7.90;;;5.97;;
60076;SDS011;45950;45.208;20.374;2023-02-22T12:00:32;10.63;;;6.50;;
60076;SDS011;45950;45.208;20.374;2023-02-22T12:03:07;8.07;;;5.32;;
60076;SDS011;45950;45.208;20.374;2023-02-22T12:05:42;6.85;;;5.88;;
60076;SDS011;45950;45.208;20.374;2023-02-22T12:08:22;11.52;;;7.53;;
60076;SDS011;45950;45.208;20.374;2023-02-22T12:10:54;7.05;;;5.03;;
60076;SDS011;45950;45.208;20.374;2023-02-22T12:13:24;7.80;;;5.47;;
60076;SDS011;45950;45.208;20.374;2023-02-22T12:16:00;9.75;;;6.65;;
60076;SDS011;45950;45.208;20.374;2023-02-22T12:18:31;8.65;;;5.97;;
60076;SDS011;45950;45.208;20.374;2023-02-22T12:21:01;7.82;;;5.93;;
60076;SDS011;45950;45.208;20.374;2023-02-22T12:23:47;8.70;;;5.10;;
60076;SDS011;45950;45.208;20.374;2023-02-22T12:26:17;8.25;;;6.90;;
60076;SDS011;45950;45.208;20.374;2023-02-22T12:28:47;8.63;;;6.57;;
60076;SDS011;45950;45.208;20.374;2023-02-22T12:31:28;9.07;;;6.95;;
60076;SDS011;45950;45.208;20.374;2023-02-22T12:33:58;9.02;;;6.55;;
60076;SDS011;45950;45.208;20.374;2023-02-22T12:36:30;9.77;;;6.45;;
60076;SDS011;45950;45.208;20.374;2023-02-22T12:38:59;9.00;;;7.30;;
60076;SDS011;45950;45.208;20.374;2023-02-22T12:41:30;8.70;;;6.03;;
60076;SDS011;45950;45.208;20.374;2023-02-22T12:44:01;11.57;;;5.75;;
60076;SDS011;45950;45.208;20.374;2023-02-22T12:46:31;7.65;;;5.70;;
60076;SDS011;45950;45.208;20.374;2023-02-22T12:49:02;16.33;;;6.78;;
60076;SDS011;45950;45.208;20.374;2023-02-22T12:51:33;8.67;;;6.00;;
60076;SDS011;45950;45.208;20.374;2023-02-22T12:54:06;6.13;;;4.95;;
60076;SDS011;45950;45.208;20.374;2023-02-22T12:56:36;7.55;;;5.53;;
60076;SDS011;45950;45.208;20.374;2023-02-22T12:59:08;10.70;;;7.60;;
60076;SDS011;45950;45.208;20.374;2023-02-22T13:01:37;9.55;;;6.18;;
60076;SDS011;45950;45.208;20.374;2023-02-22T13:04:04;10.35;;;7.13;;
60076;SDS011;45950;45.208;20.374;2023-02-22T13:06:41;43.33;;;24.52;;
60076;SDS011;45950;45.208;20.374;2023-02-22T13:09:17;17.52;;;10.60;;
60076;SDS011;45950;45.208;20.374;2023-02-22T13:11:50;43.63;;;22.38;;
60076;SDS011;45950;45.208;20.374;2023-02-22T13:14:25;7.97;;;5.95;;
60076;SDS011;45950;45.208;20.374;2023-02-22T13:16:57;16.92;;;10.88;;
60076;SDS011;45950;45.208;20.374;2023-02-22T13:19:31;8.82;;;5.88;;
60076;SDS011;45950;45.208;20.374;2023-02-22T13:22:00;7.57;;;4.95;;
60076;SDS011;45950;45.208;20.374;2023-02-22T13:24:30;7.80;;;4.97;;
60076;SDS011;45950;45.208;20.374;2023-02-22T13:27:00;7.93;;;6.15;;
60076;SDS011;45950;45.208;20.374;2023-02-22T13:29:29;7.07;;;4.97;;
60076;SDS011;45950;45.208;20.374;2023-02-22T13:34:43;6.47;;;4.43;;
60076;SDS011;45950;45.208;20.374;2023-02-22T13:40:12;6.05;;;4.63;;
60076;SDS011;45950;45.208;20.374;2023-02-22T13:48:31;6.10;;;4.82;;
60076;SDS011;45950;45.208;20.374;2023-02-22T13:51:08;6.10;;;4.90;;
60076;SDS011;45950;45.208;20.374;2023-02-22T13:56:08;5.85;;;4.30;;
60076;SDS011;45950;45.208;20.374;2023-02-22T13:58:45;7.40;;;5.32;;
60076;SDS011;45950;45.208;20.374;2023-02-22T14:01:16;7.25;;;5.65;;
60076;SDS011;45950;45.208;20.374;2023-02-22T14:06:44;8.73;;;5.60;;
60076;SDS011;45950;45.208;20.374;2023-02-22T14:09:13;6.82;;;5.22;;
60076;SDS011;45950;45.208;20.374;2023-02-22T14:11:43;5.22;;;4.25;;
60076;SDS011;45950;45.208;20.374;2023-02-22T14:14:13;6.53;;;4.63;;
60076;SDS011;45950;45.208;20.374;2023-02-22T14:16:41;6.13;;;4.75;;
60076;SDS011;45950;45.208;20.374;2023-02-22T14:19:14;6.53;;;4.55;;
60076;SDS011;45950;45.208;20.374;2023-02-22T14:21:56;5.85;;;3.83;;
60076;SDS011;45950;45.208;20.374;2023-02-22T14:24:26;8.23;;;5.78;;
60076;SDS011;45950;45.208;20.374;2023-02-22T14:26:54;6.57;;;4.80;;
60076;SDS011;45950;45.208;20.374;2023-02-22T14:29:21;9.93;;;6.38;;
60076;SDS011;45950;45.208;20.374;2023-02-22T14:34:42;7.50;;;6.18;;
60076;SDS011;45950;45.208;20.374;2023-02-22T14:37:13;6.20;;;4.45;;
60076;SDS011;45950;45.208;20.374;2023-02-22T14:39:42;8.90;;;6.03;;
60076;SDS011;45950;45.208;20.374;2023-02-22T14:42:11;8.30;;;5.75;;
60076;SDS011;45950;45.208;20.374;2023-02-22T14:44:39;8.63;;;5.15;;
60076;SDS011;45950;45.208;20.374;2023-02-22T14:47:08;10.40;;;6.18;;
60076;SDS011;45950;45.208;20.374;2023-02-22T14:49:40;9.40;;;5.68;;
60076;SDS011;45950;45.208;20.374;2023-02-22T14:52:14;9.32;;;5.93;;
60076;SDS011;45950;45.208;20.374;2023-02-22T14:54:48;9.32;;;5.85;;
60076;SDS011;45950;45.208;20.374;2023-02-22T14:57:18;8.55;;;4.75;;
60076;SDS011;45950;45.208;20.374;2023-02-22T14:59:49;9.05;;;5.07;;
60076;SDS011;45950;45.208;20.374;2023-02-22T15:02:18;7.03;;;5.63;;
60076;SDS011;45950;45.208;20.374;2023-02-22T15:04:50;7.15;;;4.40;;
60076;SDS011;45950;45.208;20.374;2023-02-22T15:07:22;5.40;;;4.07;;
60076;SDS011;45950;45.208;20.374;2023-02-22T15:09:51;6.25;;;4.47;;
60076;SDS011;45950;45.208;20.374;2023-02-22T15:12:25;5.25;;;4.13;;
60076;SDS011;45950;45.208;20.374;2023-02-22T15:15:08;5.32;;;4.15;;
60076;SDS011;45950;45.208;20.374;2023-02-22T15:17:36;6.30;;;3.97;;
60076;SDS011;45950;45.208;20.374;2023-02-22T15:20:04;6.38;;;4.63;;
60076;SDS011;45950;45.208;20.374;2023-02-22T15:22:34;5.90;;;4.15;;
60076;SDS011;45950;45.208;20.374;2023-02-22T15:27:59;6.13;;;4.25;;
60076;SDS011;45950;45.208;20.374;2023-02-22T15:30:27;6.80;;;4.80;;
60076;SDS011;45950;45.208;20.374;2023-02-22T15:33:08;7.10;;;5.28;;
60076;SDS011;45950;45.208;20.374;2023-02-22T15:35:35;8.57;;;5.10;;
60076;SDS011;45950;45.208;20.374;2023-02-22T15:38:04;7.70;;;4.40;;
60076;SDS011;45950;45.208;20.374;2023-02-22T15:40:31;7.15;;;5.05;;
60076;SDS011;45950;45.208;20.374;2023-02-22T15:42:59;7.45;;;4.93;;
60076;SDS011;45950;45.208;20.374;2023-02-22T15:45:28;5.75;;;3.92;;
60076;SDS011;45950;45.208;20.374;2023-02-22T15:47:56;5.65;;;3.35;;
60076;SDS011;45950;45.208;20.374;2023-02-22T15:50:24;6.20;;;4.07;;
60076;SDS011;45950;45.208;20.374;2023-02-22T15:52:55;4.72;;;3.70;;
60076;SDS011;45950;45.208;20.374;2023-02-22T15:55:29;6.55;;;4.63;;
60076;SDS011;45950;45.208;20.374;2023-02-22T15:57:57;5.72;;;4.15;;
60076;SDS011;45950;45.208;20.374;2023-02-22T16:00:26;6.22;;;4.38;;
60076;SDS011;45950;45.208;20.374;2023-02-22T16:03:00;5.22;;;3.80;;
60076;SDS011;45950;45.208;20.374;2023-02-22T16:05:31;7.65;;;4.05;;
60076;SDS011;45950;45.208;20.374;2023-02-22T16:08:00;6.47;;;3.63;;
60076;SDS011;45950;45.208;20.374;2023-02-22T16:10:28;5.85;;;3.45;;
60076;SDS011;45950;45.208;20.374;2023-02-22T16:13:04;4.85;;;3.70;;
60076;SDS011;45950;45.208;20.374;2023-02-22T16:15:31;8.30;;;4.05;;
60076;SDS011;45950;45.208;20.374;2023-02-22T16:20:39;4.97;;;3.40;;
60076;SDS011;45950;45.208;20.374;2023-02-22T16:23:21;5.72;;;4.15;;
60076;SDS011;45950;45.208;20.374;2023-02-22T16:26:01;7.20;;;4.13;;
60076;SDS011;45950;45.208;20.374;2023-02-22T16:28:28;5.85;;;3.42;;
60076;SDS011;45950;45.208;20.374;2023-02-22T16:30:58;10.65;;;5.80;;
60076;SDS011;45950;45.208;20.374;2023-02-22T16:33:24;12.50;;;8.10;;
60076;SDS011;45950;45.208;20.374;2023-02-22T16:35:53;13.10;;;7.85;;
60076;SDS011;45950;45.208;20.374;2023-02-22T16:41:25;20.42;;;12.00;;
60076;SDS011;45950;45.208;20.374;2023-02-22T16:43:52;23.58;;;14.65;;
60076;SDS011;45950;45.208;20.374;2023-02-22T16:46:19;28.95;;;17.80;;
60076;SDS011;45950;45.208;20.374;2023-02-22T16:48:45;28.15;;;16.92;;
60076;SDS011;45950;45.208;20.374;2023-02-22T16:51:16;29.83;;;17.95;;
60076;SDS011;45950;45.208;20.374;2023-02-22T16:56:47;33.13;;;20.08;;
60076;SDS011;45950;45.208;20.374;2023-02-22T16:59:15;36.00;;;21.67;;
60076;SDS011;45950;45.208;20.374;2023-02-22T17:01:42;35.50;;;21.77;;
60076;SDS011;45950;45.208;20.374;2023-02-22T17:04:11;44.45;;;27.73;;
60076;SDS011;45950;45.208;20.374;2023-02-22T17:06:38;47.90;;;30.70;;
60076;SDS011;45950;45.208;20.374;2023-02-22T17:09:05;47.20;;;28.98;;
60076;SDS011;45950;45.208;20.374;2023-02-22T17:11:32;44.45;;;28.33;;
60076;SDS011;45950;45.208;20.374;2023-02-22T17:14:00;46.00;;;29.02;;
60076;SDS011;45950;45.208;20.374;2023-02-22T17:16:26;44.35;;;29.58;;
60076;SDS011;45950;45.208;20.374;2023-02-22T17:18:53;47.40;;;29.50;;
60076;SDS011;45950;45.208;20.374;2023-02-22T17:21:19;68.78;;;38.90;;
60076;SDS011;45950;45.208;20.374;2023-02-22T17:23:45;69.88;;;39.40;;
60076;SDS011;45950;45.208;20.374;2023-02-22T17:26:12;74.32;;;41.72;;
60076;SDS011;45950;45.208;20.374;2023-02-22T17:31:40;81.03;;;46.50;;
60076;SDS011;45950;45.208;20.374;2023-02-22T17:34:07;88.88;;;48.38;;
60076;SDS011;45950;45.208;20.374;2023-02-22T17:36:33;90.72;;;50.13;;
60076;SDS011;45950;45.208;20.374;2023-02-22T17:39:01;86.75;;;52.45;;
60076;SDS011;45950;45.208;20.374;2023-02-22T17:41:28;93.10;;;56.08;;
60076;SDS011;45950;45.208;20.374;2023-02-22T17:43:55;107.68;;;58.72;;
60076;SDS011;45950;45.208;20.374;2023-02-22T17:46:22;113.65;;;65.35;;
60076;SDS011;45950;45.208;20.374;2023-02-22T17:48:50;115.13;;;66.75;;
60076;SDS011;45950;45.208;20.374;2023-02-22T17:51:18;116.43;;;68.50;;
60076;SDS011;45950;45.208;20.374;2023-02-22T17:53:45;113.43;;;66.10;;
60076;SDS011;45950;45.208;20.374;2023-02-22T17:56:12;114.45;;;66.78;;
60076;SDS011;45950;45.208;20.374;2023-02-22T17:58:42;126.47;;;71.18;;
60076;SDS011;45950;45.208;20.374;2023-02-22T18:01:17;124.35;;;68.00;;
60076;SDS011;45950;45.208;20.374;2023-02-22T18:03:44;99.85;;;56.63;;
60076;SDS011;45950;45.208;20.374;2023-02-22T18:06:14;102.95;;;58.67;;
60076;SDS011;45950;45.208;20.374;2023-02-22T18:08:41;94.40;;;55.15;;
60076;SDS011;45950;45.208;20.374;2023-02-22T18:11:07;81.43;;;47.17;;
60076;SDS011;45950;45.208;20.374;2023-02-22T18:13:34;68.53;;;40.10;;
60076;SDS011;45950;45.208;20.374;2023-02-22T18:16:00;64.95;;;37.42;;
60076;SDS011;45950;45.208;20.374;2023-02-22T18:18:29;61.08;;;37.38;;
60076;SDS011;45950;45.208;20.374;2023-02-22T18:20:56;59.47;;;36.08;;
60076;SDS011;45950;45.208;20.374;2023-02-22T18:23:26;57.92;;;37.10;;
60076;SDS011;45950;45.208;20.374;2023-02-22T18:25:53;56.00;;;34.38;;
60076;SDS011;45950;45.208;20.374;2023-02-22T18:28:20;51.35;;;33.13;;
60076;SDS011;45950;45.208;20.374;2023-02-22T18:30:47;51.08;;;31.70;;
60076;SDS011;45950;45.208;20.374;2023-02-22T18:33:14;43.63;;;29.17;;
60076;SDS011;45950;45.208;20.374;2023-02-22T18:35:42;40.97;;;27.33;;
60076;SDS011;45950;45.208;20.374;2023-02-22T18:40:59;34.65;;;22.02;;
60076;SDS011;45950;45.208;20.374;2023-02-22T18:43:25;26.70;;;18.17;;
60076;SDS011;45950;45.208;20.374;2023-02-22T18:45:52;25.20;;;16.92;;
60076;SDS011;45950;45.208;20.374;2023-02-22T18:48:18;30.95;;;18.88;;
60076;SDS011;45950;45.208;20.374;2023-02-22T18:50:57;29.55;;;18.30;;
60076;SDS011;45950;45.208;20.374;2023-02-22T18:53:24;34.90;;;18.80;;
60076;SDS011;45950;45.208;20.374;2023-02-22T18:55:50;38.65;;;20.60;;
60076;SDS011;45950;45.208;20.374;2023-02-22T18:58:18;42.95;;;22.25;;
60076;SDS011;45950;45.208;20.374;2023-02-22T19:00:44;35.85;;;19.88;;
60076;SDS011;45950;45.208;20.374;2023-02-22T19:03:13;36.17;;;19.65;;
60076;SDS011;45950;45.208;20.374;2023-02-22T19:05:39;34.03;;;18.27;;
60076;SDS011;45950;45.208;20.374;2023-02-22T19:08:06;33.42;;;18.40;;
60076;SDS011;45950;45.208;20.374;2023-02-22T19:10:35;36.72;;;20.45;;
60076;SDS011;45950;45.208;20.374;2023-02-22T19:13:03;39.88;;;23.48;;
60076;SDS011;45950;45.208;20.374;2023-02-22T19:15:36;34.95;;;21.90;;
60076;SDS011;45950;45.208;20.374;2023-02-22T19:18:02;40.92;;;24.48;;
60076;SDS011;45950;45.208;20.374;2023-02-22T19:20:29;38.80;;;23.58;;
60076;SDS011;45950;45.208;20.374;2023-02-22T19:22:57;33.60;;;20.92;;
60076;SDS011;45950;45.208;20.374;2023-02-22T19:25:23;34.97;;;22.83;;
60076;SDS011;45950;45.208;20.374;2023-02-22T19:28:00;32.63;;;20.58;;
60076;SDS011;45950;45.208;20.374;2023-02-22T19:30:26;35.72;;;22.48;;
60076;SDS011;45950;45.208;20.374;2023-02-22T19:32:54;33.40;;;22.13;;
60076;SDS011;45950;45.208;20.374;2023-02-22T19:38:12;33.50;;;22.50;;
60076;SDS011;45950;45.208;20.374;2023-02-22T19:40:38;44.83;;;28.60;;
60076;SDS011;45950;45.208;20.374;2023-02-22T19:43:05;43.22;;;26.65;;
60076;SDS011;45950;45.208;20.374;2023-02-22T19:45:32;41.50;;;27.90;;
60076;SDS011;45950;45.208;20.374;2023-02-22T19:47:59;53.60;;;32.60;;